Time;durP1;ratioP1;P1;durP2;ratioP2;P2;SDS_P1;SDS_P2;PMS_P1;PMS_P2;Temp;Humidity;BMP_temperature;BMP_pressure;BME280_temperature;BME280_humidity;BME280_pressure;Samples;Min_cycle;Max_cycle;Signal;HPM_P1;HPM_P2
2021/11/21 00:01:30;;;;;;;15.57;13.27;;;5.70;99.90;;;;;;5039134;28;20634;-83
2021/11/21 00:03:59;;;;;;;19.02;14.27;;;5.60;99.90;;;;;;5035243;28;20230;-83
2021/11/21 00:06:27;;;;;;;15.93;12.63;;;5.60;99.90;;;;;;5042178;28;20194;-83
2021/11/21 00:08:54;;;;;;;19.38;12.85;;;5.50;99.90;;;;;;5042178;28;20228;-83
2021/11/21 00:11:22;;;;;;;14.05;12.60;;;5.50;99.90;;;;;;5037303;28;20205;-83
2021/11/21 00:13:50;;;;;;;15.55;13.95;;;5.40;99.90;;;;;;5040068;28;20263;-82
2021/11/21 00:16:17;;;;;;;17.33;12.80;;;5.30;99.90;;;;;;5045467;28;20202;-82
2021/11/21 00:18:44;;;;;;;18.88;12.38;;;5.20;99.90;;;;;;5040041;28;20228;-82
2021/11/21 00:21:14;;;;;;;19.25;13.38;;;5.10;99.90;;;;;;5037320;28;20199;-83
2021/11/21 00:23:41;;;;;;;18.95;14.15;;;5.00;99.90;;;;;;5038052;28;20278;-82
2021/11/21 00:26:08;;;;;;;22.70;13.60;;;4.90;99.90;;;;;;5035273;28;20291;-81
2021/11/21 00:28:35;;;;;;;30.58;13.73;;;5.00;99.90;;;;;;5037349;28;20214;-82
2021/11/21 00:31:02;;;;;;;17.90;13.50;;;5.00;99.90;;;;;;5032061;28;20194;-82
2021/11/21 00:33:30;;;;;;;20.73;12.40;;;5.00;99.90;;;;;;5044775;28;20198;-82
2021/11/21 00:35:57;;;;;;;19.65;14.55;;;4.90;99.90;;;;;;5045418;28;20277;-82
2021/11/21 00:38:26;;;;;;;19.30;13.55;;;4.90;99.90;;;;;;5044069;28;20227;-83
2021/11/21 00:40:53;;;;;;;24.83;17.13;;;5.00;99.90;;;;;;5045635;28;20636;-82
2021/11/21 00:43:21;;;;;;;26.38;16.45;;;4.90;99.90;;;;;;5045706;28;20667;-83
2021/11/21 00:45:48;;;;;;;19.08;12.93;;;5.00;99.90;;;;;;5046271;28;20281;-83
2021/11/21 00:48:20;;;;;;;21.17;14.65;;;5.00;99.90;;;;;;5034615;28;20698;-83
2021/11/21 00:50:56;;;;;;;19.23;14.30;;;5.00;99.90;;;;;;5035592;28;20202;-82
2021/11/21 00:53:26;;;;;;;13.00;11.70;;;5.10;99.90;;;;;;5045578;28;20233;-83
2021/11/21 00:55:54;;;;;;;13.40;10.75;;;5.10;99.90;;;;;;5045107;28;20214;-83
2021/11/21 00:58:22;;;;;;;13.75;10.63;;;5.00;99.90;;;;;;5043976;28;20222;-82
2021/11/21 01:00:51;;;;;;;12.50;10.68;;;5.00;99.90;;;;;;5045035;28;20206;-83
2021/11/21 01:03:20;;;;;;;12.85;10.55;;;5.00;99.90;;;;;;5044600;28;20222;-83
2021/11/21 01:05:49;;;;;;;11.13;9.05;;;5.10;99.90;;;;;;5044661;28;20278;-83
2021/11/21 01:08:16;;;;;;;12.18;9.32;;;5.10;99.90;;;;;;5045062;28;20226;-82
2021/11/21 01:10:46;;;;;;;12.38;10.50;;;5.10;99.90;;;;;;5045111;28;20209;-83
2021/11/21 01:13:14;;;;;;;11.48;9.40;;;5.00;99.90;;;;;;5044496;28;20548;-81
2021/11/21 01:15:41;;;;;;;10.88;9.13;;;5.00;99.90;;;;;;5043717;28;20206;-82
2021/11/21 01:18:09;;;;;;;12.68;9.27;;;5.00;99.90;;;;;;5045098;28;20238;-82
2021/11/21 01:20:40;;;;;;;14.93;10.85;;;5.10;99.90;;;;;;5045009;28;20209;-82
2021/11/21 01:23:08;;;;;;;10.95;9.70;;;5.10;99.90;;;;;;5044646;28;20230;-82
2021/11/21 01:25:35;;;;;;;12.05;9.52;;;4.80;99.90;;;;;;5045210;28;20293;-83
2021/11/21 01:28:03;;;;;;;12.93;10.02;;;4.70;99.90;;;;;;5045376;28;20217;-83
2021/11/21 01:30:31;;;;;;;11.07;9.18;;;4.70;99.90;;;;;;5045319;28;20198;-83
2021/11/21 01:33:00;;;;;;;13.57;11.18;;;4.60;99.90;;;;;;5043799;28;20207;-82
2021/11/21 01:35:29;;;;;;;10.43;9.43;;;4.50;99.90;;;;;;5044260;28;20210;-83
2021/11/21 01:37:56;;;;;;;13.05;10.35;;;4.50;99.90;;;;;;5044004;28;20237;-83
2021/11/21 01:40:23;;;;;;;11.35;9.82;;;4.60;99.90;;;;;;5048482;28;20269;-84
2021/11/21 01:42:53;;;;;;;12.10;10.75;;;4.70;99.90;;;;;;5048454;28;20227;-82
2021/11/21 01:45:22;;;;;;;11.50;8.73;;;4.60;99.90;;;;;;5048376;28;20216;-82
2021/11/21 01:47:50;;;;;;;8.85;7.95;;;4.60;99.90;;;;;;5048243;28;20273;-83
2021/11/21 01:50:21;;;;;;;9.75;8.82;;;4.60;99.90;;;;;;5048376;28;20209;-83
2021/11/21 01:52:47;;;;;;;11.38;9.27;;;4.60;99.90;;;;;;5048692;28;20284;-82
2021/11/21 01:55:15;;;;;;;11.45;9.35;;;4.60;99.90;;;;;;5047591;28;20270;-83
2021/11/21 01:57:42;;;;;;;9.13;8.23;;;4.70;99.90;;;;;;5047493;28;20232;-83
2021/11/21 02:00:11;;;;;;;9.30;8.15;;;4.80;99.90;;;;;;5048549;28;20286;-83
2021/11/21 02:02:40;;;;;;;10.18;9.07;;;4.90;99.90;;;;;;5047223;28;20212;-83
2021/11/21 02:05:08;;;;;;;10.02;9.00;;;4.90;99.90;;;;;;5047957;28;20249;-83
2021/11/21 02:07:35;;;;;;;8.52;7.47;;;5.00;99.90;;;;;;5048060;28;20236;-83
2021/11/21 02:10:03;;;;;;;12.52;9.30;;;5.00;99.90;;;;;;5048306;28;20313;-83
2021/11/21 02:12:30;;;;;;;10.57;9.45;;;5.10;99.90;;;;;;5048324;28;20209;-83
2021/11/21 02:14:57;;;;;;;10.15;9.00;;;5.10;99.90;;;;;;5047717;28;20194;-83
2021/11/21 02:17:26;;;;;;;10.48;8.73;;;5.10;99.90;;;;;;5048874;28;20224;-84
2021/11/21 02:19:55;;;;;;;9.82;8.00;;;5.20;99.90;;;;;;5047714;28;20241;-83
2021/11/21 02:22:23;;;;;;;8.98;8.05;;;5.30;99.90;;;;;;5047295;28;20210;-83
2021/11/21 02:24:50;;;;;;;10.25;8.98;;;5.30;99.90;;;;;;5047484;28;20222;-83
2021/11/21 02:27:23;;;;;;;10.27;8.05;;;5.30;99.90;;;;;;5048141;28;20723;-83
2021/11/21 02:29:49;;;;;;;9.35;8.40;;;4.70;99.90;;;;;;5047811;28;20225;-83
2021/11/21 02:32:16;;;;;;;11.82;8.82;;;4.10;99.90;;;;;;5047072;28;20220;-84
2021/11/21 02:34:43;;;;;;;10.55;8.45;;;3.70;99.90;;;;;;5048204;28;20198;-83
2021/11/21 02:37:10;;;;;;;10.50;8.75;;;3.60;99.90;;;;;;5047304;28;20223;-82
2021/11/21 02:39:38;;;;;;;9.45;8.48;;;3.70;99.90;;;;;;5047649;28;20220;-83
2021/11/21 02:42:06;;;;;;;9.60;8.23;;;3.80;99.90;;;;;;5046563;28;20205;-83
2021/11/21 02:44:33;;;;;;;8.60;7.70;;;3.70;99.90;;;;;;5046629;28;20222;-82
2021/11/21 02:47:00;;;;;;;9.77;8.48;;;4.00;99.90;;;;;;5046604;28;20217;-82
2021/11/21 02:49:27;;;;;;;9.27;8.02;;;4.10;99.90;;;;;;5046747;28;20235;-83
2021/11/21 02:51:54;;;;;;;8.68;7.80;;;4.10;99.90;;;;;;5045156;28;20202;-83
2021/11/21 02:54:20;;;;;;;9.20;8.10;;;4.10;99.90;;;;;;5047421;28;20206;-83
2021/11/21 02:56:49;;;;;;;9.32;8.38;;;4.00;99.90;;;;;;5047887;28;20209;-82
2021/11/21 02:59:26;;;;;;;8.70;8.00;;;3.90;99.90;;;;;;5047576;28;20647;-83
2021/11/21 03:01:53;;;;;;;9.38;8.45;;;3.80;99.90;;;;;;5047023;28;20208;-84
2021/11/21 03:04:23;;;;;;;9.70;7.45;;;3.80;99.90;;;;;;5047799;28;20309;-82
2021/11/21 03:06:50;;;;;;;8.88;7.93;;;4.00;99.90;;;;;;5046070;28;20691;-83
2021/11/21 03:09:21;;;;;;;8.40;7.50;;;4.10;99.90;;;;;;5046194;28;20246;-83
2021/11/21 03:11:53;;;;;;;7.68;6.32;;;4.20;99.90;;;;;;5047059;28;20221;-83
2021/11/21 03:14:23;;;;;;;9.35;7.80;;;4.30;99.90;;;;;;5046656;28;20201;-84
2021/11/21 03:16:51;;;;;;;10.40;7.57;;;4.30;99.90;;;;;;5043403;28;20214;-83
2021/11/21 03:19:18;;;;;;;9.20;7.32;;;4.30;99.90;;;;;;5045847;28;20246;-83
2021/11/21 03:21:45;;;;;;;9.88;8.68;;;4.30;99.90;;;;;;5046522;28;20214;-83
2021/11/21 03:24:12;;;;;;;9.50;8.50;;;4.20;99.90;;;;;;5045879;28;20248;-83
2021/11/21 03:26:39;;;;;;;8.23;7.53;;;4.00;99.90;;;;;;5046238;28;20207;-83
2021/11/21 03:29:08;;;;;;;7.40;6.70;;;4.10;99.90;;;;;;5046117;28;20221;-82
2021/11/21 03:31:35;;;;;;;9.55;8.27;;;4.00;99.90;;;;;;5046455;28;20232;-83
2021/11/21 03:34:02;;;;;;;8.70;6.93;;;3.80;99.90;;;;;;5046302;28;20233;-83
2021/11/21 03:36:32;;;;;;;9.23;8.07;;;4.10;99.90;;;;;;5046855;28;20248;-83
2021/11/21 03:39:00;;;;;;;9.63;8.68;;;3.90;99.90;;;;;;5046182;28;20225;-83
2021/11/21 03:41:27;;;;;;;11.38;8.68;;;3.80;99.90;;;;;;5045734;28;20202;-82
2021/11/21 03:43:55;;;;;;;11.52;9.32;;;3.70;99.90;;;;;;5044614;28;20213;-83
2021/11/21 03:46:24;;;;;;;10.45;7.72;;;3.60;99.90;;;;;;5047900;28;20289;-83
2021/11/21 03:48:51;;;;;;;9.95;8.70;;;3.80;99.90;;;;;;5083231;22;20224;-84
2021/11/21 03:51:18;;;;;;;9.05;8.15;;;3.90;99.90;;;;;;5080783;28;20212;-83
2021/11/21 03:53:45;;;;;;;8.07;7.28;;;4.10;99.90;;;;;;5083019;28;20203;-85
2021/11/21 03:56:15;;;;;;;11.88;9.88;;;4.10;99.90;;;;;;5086129;28;20205;-84
2021/11/21 03:58:50;;;;;;;12.10;9.13;;;4.20;99.90;;;;;;5063896;28;20221;-84
2021/11/21 04:01:18;;;;;;;10.23;9.02;;;4.30;99.90;;;;;;5084767;28;20196;-84
2021/11/21 04:03:46;;;;;;;11.45;8.63;;;4.30;99.90;;;;;;5101085;28;20287;-84
2021/11/21 04:06:13;;;;;;;9.57;8.05;;;4.30;99.90;;;;;;5101550;28;20290;-83
2021/11/21 04:08:42;;;;;;;12.73;8.43;;;4.20;99.90;;;;;;5101624;28;20224;-85
2021/11/21 04:11:08;;;;;;;9.93;8.48;;;4.00;99.90;;;;;;5101281;28;20203;-85
2021/11/21 04:13:35;;;;;;;10.38;9.27;;;4.20;99.90;;;;;;5095868;28;20211;-85
2021/11/21 04:16:02;;;;;;;12.70;9.80;;;4.10;99.90;;;;;;5080849;28;20212;-85
2021/11/21 04:18:29;;;;;;;11.43;8.00;;;4.00;99.90;;;;;;5084744;28;20212;-83
2021/11/21 04:20:58;;;;;;;11.45;9.40;;;4.10;99.90;;;;;;5101772;28;20209;-84
2021/11/21 04:23:29;;;;;;;15.63;9.85;;;3.80;99.90;;;;;;5099960;28;20200;-84
2021/11/21 04:25:56;;;;;;;11.43;8.95;;;3.70;99.90;;;;;;5101929;28;20204;-84
2021/11/21 04:28:22;;;;;;;10.88;7.85;;;3.70;99.90;;;;;;5081670;28;20234;-84
2021/11/21 04:30:49;;;;;;;11.07;7.50;;;3.70;99.90;;;;;;5083989;28;20207;-84
2021/11/21 04:33:16;;;;;;;10.93;8.27;;;3.60;99.90;;;;;;5101182;28;20210;-85
2021/11/21 04:35:43;;;;;;;10.05;9.02;;;3.70;99.90;;;;;;5104151;28;20201;-84
2021/11/21 04:38:11;;;;;;;9.48;8.13;;;3.60;99.90;;;;;;5101800;28;20215;-84
2021/11/21 04:40:38;;;;;;;9.63;8.02;;;3.80;99.90;;;;;;5089166;28;20206;-83
2021/11/21 04:43:04;;;;;;;23.02;9.23;;;3.80;99.90;;;;;;5080296;28;20669;-84
2021/11/21 04:45:31;;;;;;;12.52;8.68;;;3.70;99.90;;;;;;5092731;28;20233;-84
2021/11/21 04:47:58;;;;;;;9.27;8.35;;;3.50;99.90;;;;;;5100757;28;20214;-84
2021/11/21 04:50:25;;;;;;;13.30;9.93;;;3.70;99.90;;;;;;5087630;28;20208;-85
2021/11/21 04:52:51;;;;;;;16.40;8.60;;;3.90;99.90;;;;;;5095811;28;20202;-84
2021/11/21 04:55:20;;;;;;;9.40;7.43;;;3.90;99.90;;;;;;5081262;28;20202;-84
2021/11/21 04:57:46;;;;;;;14.25;8.05;;;4.00;99.90;;;;;;5080984;28;20201;-85
2021/11/21 05:00:17;;;;;;;9.68;7.35;;;4.10;99.90;;;;;;5096910;28;20589;-84
2021/11/21 05:02:44;;;;;;;18.42;8.45;;;4.00;99.90;;;;;;5100253;28;20284;-85
2021/11/21 05:05:11;;;;;;;12.90;6.85;;;4.00;99.90;;;;;;5100921;28;20223;-85
2021/11/21 05:07:39;;;;;;;11.00;7.35;;;4.00;99.90;;;;;;5100983;28;20214;-83
2021/11/21 05:10:07;;;;;;;8.32;6.65;;;4.00;99.90;;;;;;5085096;28;20223;-84
2021/11/21 05:12:36;;;;;;;11.73;6.97;;;4.00;99.90;;;;;;5100423;28;20213;-85
2021/11/21 05:15:03;;;;;;;12.32;6.35;;;3.60;99.90;;;;;;5100492;28;20210;-84
2021/11/21 05:17:30;;;;;;;11.75;7.22;;;3.30;99.90;;;;;;5080399;28;20219;-84
2021/11/21 05:19:59;;;;;;;13.27;7.55;;;3.10;99.90;;;;;;5080098;28;20225;-84
2021/11/21 05:22:27;;;;;;;12.52;8.13;;;3.00;99.90;;;;;;5079374;28;20624;-85
2021/11/21 05:24:54;;;;;;;11.02;7.45;;;2.90;99.90;;;;;;5079507;28;20227;-84
2021/11/21 05:27:23;;;;;;;18.38;8.50;;;2.70;99.90;;;;;;5079612;28;20739;-85
2021/11/21 05:29:51;;;;;;;28.80;8.75;;;2.50;99.90;;;;;;5079856;28;20285;-84
2021/11/21 05:32:35;;;;;;;16.58;9.15;;;2.40;99.90;;;;;;5079931;28;20205;-84
2021/11/21 05:35:05;;;;;;;15.82;9.75;;;2.40;99.90;;;;;;5079447;28;20203;-85
2021/11/21 05:37:34;;;;;;;10.48;8.02;;;2.30;99.90;;;;;;5079157;28;20758;-85
2021/11/21 05:43:32;;;;;;;11.40;7.15;;;2.30;99.90;;;;;;5074019;28;20209;-84
2021/11/21 05:46:16;;;;;;;9.20;7.18;;;2.30;99.90;;;;;;5078987;28;20221;-85
2021/11/21 05:48:47;;;;;;;21.27;8.60;;;2.50;99.90;;;;;;5078824;28;20232;-85
2021/11/21 05:51:24;;;;;;;22.63;9.35;;;2.70;99.90;;;;;;5078786;28;20289;-84
2021/11/21 05:54:32;;;;;;;9.68;5.97;;;2.70;99.90;;;;;;5060468;28;20291;-84
2021/11/21 05:57:16;;;;;;;13.23;6.60;;;2.70;99.90;;;;;;5079496;28;20201;-85
2021/11/21 06:00:00;;;;;;;7.15;5.38;;;2.70;99.90;;;;;;5079828;28;20239;-85
2021/11/21 06:02:45;;;;;;;12.10;6.80;;;2.70;99.90;;;;;;5061937;28;20620;-84
2021/11/21 06:08:53;;;;;;;5.60;5.00;;;2.20;99.90;;;;;;5021007;28;20218;-84
2021/11/21 06:25:42;;;;;;;23.35;8.98;;;2.60;99.90;;;;;;5050490;28;20248;-85
2021/11/21 06:55:42;;;;;;;7.82;5.80;;;3.30;99.90;;;;;;5035591;28;20226;-85
2021/11/21 07:11:07;;;;;;;6.88;6.00;;;3.50;99.90;;;;;;5071795;28;20221;-84
2021/11/21 07:13:42;;;;;;;12.02;5.20;;;3.60;99.90;;;;;;5082218;28;20270;-85
2021/11/21 07:16:26;;;;;;;12.30;5.22;;;3.70;99.90;;;;;;5091809;28;20214;-82
2021/11/21 07:21:48;;;;;;;7.70;5.13;;;3.80;99.90;;;;;;5091470;28;20247;-85
2021/11/21 07:24:38;;;;;;;11.07;6.43;;;3.80;99.90;;;;;;5094843;28;20770;-83
2021/11/21 07:27:06;;;;;;;7.80;5.28;;;3.70;99.90;;;;;;5088081;28;20212;-84
2021/11/21 07:29:35;;;;;;;9.32;6.32;;;3.80;99.90;;;;;;5081226;28;20228;-85
2021/11/21 07:32:04;;;;;;;9.65;5.57;;;3.80;99.90;;;;;;5081361;28;20217;-84
2021/11/21 07:34:31;;;;;;;13.20;6.75;;;3.90;99.90;;;;;;5081741;28;20289;-85
2021/11/21 07:36:58;;;;;;;10.73;5.95;;;4.00;99.90;;;;;;5082065;28;20242;-85
2021/11/21 07:39:25;;;;;;;11.38;7.00;;;4.00;99.90;;;;;;5081113;28;20229;-84
2021/11/21 07:41:52;;;;;;;9.68;6.10;;;4.00;99.90;;;;;;5081459;28;20282;-84
2021/11/21 07:44:19;;;;;;;12.77;7.18;;;4.00;99.90;;;;;;5080947;28;20204;-85
2021/11/21 07:46:48;;;;;;;13.63;6.43;;;4.00;99.90;;;;;;5081071;28;20208;-84
2021/11/21 07:49:14;;;;;;;8.98;7.50;;;4.10;99.90;;;;;;5082752;28;20252;-83
2021/11/21 07:51:41;;;;;;;12.15;6.70;;;4.30;99.90;;;;;;5090607;28;20199;-82
2021/11/21 07:54:09;;;;;;;9.45;6.63;;;4.40;99.90;;;;;;5090797;28;20732;-82
2021/11/21 07:56:36;;;;;;;6.85;5.50;;;4.30;99.90;;;;;;5090460;28;20203;-82
2021/11/21 07:59:03;;;;;;;12.50;5.65;;;4.40;99.90;;;;;;5083815;28;20221;-83
2021/11/21 08:01:30;;;;;;;8.10;5.20;;;4.50;99.90;;;;;;5082301;28;20201;-84
2021/11/21 08:03:58;;;;;;;11.13;5.97;;;4.40;99.90;;;;;;5081596;28;20215;-83
2021/11/21 08:06:25;;;;;;;8.68;6.05;;;4.50;99.90;;;;;;5081289;28;20221;-82
2021/11/21 08:08:51;;;;;;;12.13;6.43;;;4.60;99.90;;;;;;5081342;28;20225;-84
2021/11/21 08:11:18;;;;;;;12.45;5.53;;;4.60;99.90;;;;;;5080874;28;20208;-84
2021/11/21 08:13:45;;;;;;;10.00;6.40;;;4.60;99.90;;;;;;5089066;28;20207;-85
2021/11/21 08:16:13;;;;;;;8.93;6.53;;;4.70;99.90;;;;;;5096747;28;20204;-86
2021/11/21 08:18:42;;;;;;;12.93;7.13;;;4.80;99.90;;;;;;5097438;28;20268;-86
2021/11/21 08:21:10;;;;;;;10.95;6.40;;;4.90;99.90;;;;;;5096438;28;20224;-85
2021/11/21 08:23:37;;;;;;;6.90;5.05;;;5.00;99.90;;;;;;5088406;28;20212;-86
2021/11/21 08:26:05;;;;;;;8.85;6.80;;;5.00;99.90;;;;;;5092388;28;20211;-86
2021/11/21 08:28:31;;;;;;;7.63;5.80;;;5.00;99.90;;;;;;5098787;28;20216;-86
2021/11/21 08:30:59;;;;;;;7.65;4.80;;;5.10;99.90;;;;;;5081669;28;20547;-85
2021/11/21 08:33:27;;;;;;;6.68;4.75;;;5.00;99.90;;;;;;5078536;28;20236;-85
2021/11/21 08:35:54;;;;;;;7.43;5.93;;;5.10;99.90;;;;;;5091339;28;20203;-86
2021/11/21 08:38:22;;;;;;;9.63;6.28;;;5.10;99.90;;;;;;5094246;28;20739;-87
2021/11/21 08:40:58;;;;;;;5.85;5.00;;;5.20;99.90;;;;;;5079674;28;20303;-87
2021/11/21 08:43:25;;;;;;;8.52;6.10;;;5.30;99.90;;;;;;5081858;28;20268;-86
2021/11/21 08:45:52;;;;;;;10.55;7.25;;;5.30;99.90;;;;;;5084509;28;20212;-86
2021/11/21 08:48:18;;;;;;;8.07;6.65;;;5.30;99.90;;;;;;5083452;28;20197;-86
2021/11/21 08:50:45;;;;;;;7.88;5.43;;;5.40;99.90;;;;;;5085678;28;20653;-87
2021/11/21 08:53:13;;;;;;;7.25;6.55;;;5.40;99.90;;;;;;5095272;28;20208;-86
2021/11/21 08:55:41;;;;;;;13.57;9.70;;;5.50;99.90;;;;;;5086199;28;20201;-86
2021/11/21 08:58:09;;;;;;;11.52;8.10;;;5.40;99.90;;;;;;5080896;28;20205;-86
2021/11/21 09:00:36;;;;;;;11.00;7.43;;;5.40;99.90;;;;;;5101088;28;20196;-86
2021/11/21 09:03:03;;;;;;;9.82;8.27;;;5.50;99.90;;;;;;5101134;28;20291;-86
2021/11/21 09:05:30;;;;;;;12.60;8.30;;;5.50;99.90;;;;;;5083813;28;20285;-87
2021/11/21 09:07:57;;;;;;;16.40;11.35;;;5.40;99.90;;;;;;5098850;28;20250;-84
2021/11/21 09:10:24;;;;;;;15.95;10.15;;;5.20;99.90;;;;;;5094140;28;20224;-85
2021/11/21 09:12:52;;;;;;;19.73;11.10;;;4.90;99.90;;;;;;5098974;28;20211;-84
2021/11/21 09:15:22;;;;;;;19.23;11.82;;;4.70;99.90;;;;;;5077721;28;20255;-83
2021/11/21 09:17:52;;;;;;;15.02;10.98;;;4.60;99.90;;;;;;5081047;28;20626;-81
2021/11/21 09:20:19;;;;;;;14.75;11.07;;;4.40;99.90;;;;;;5099069;28;20224;-81
2021/11/21 09:22:46;;;;;;;17.00;11.63;;;4.40;99.90;;;;;;5097975;28;20203;-83
2021/11/21 09:25:13;;;;;;;24.27;11.95;;;4.20;99.90;;;;;;5098209;28;20216;-80
2021/11/21 09:27:40;;;;;;;18.70;11.63;;;4.30;99.90;;;;;;5099018;28;20579;-83
2021/11/21 09:30:10;;;;;;;14.50;13.00;;;4.30;99.90;;;;;;5098633;28;20303;-83
2021/11/21 09:32:39;;;;;;;16.13;10.43;;;4.50;99.90;;;;;;5099014;28;20223;-83
2021/11/21 09:35:08;;;;;;;16.77;11.65;;;4.60;99.90;;;;;;5099449;28;20718;-83
2021/11/21 09:37:35;;;;;;;17.38;12.40;;;4.70;99.90;;;;;;5099372;28;20208;-84
2021/11/21 09:40:02;;;;;;;19.58;11.82;;;4.70;99.90;;;;;;5101593;28;20220;-83
2021/11/21 09:42:29;;;;;;;23.02;12.50;;;4.60;99.90;;;;;;5101551;28;20208;-82
2021/11/21 09:44:56;;;;;;;18.25;13.27;;;4.60;99.90;;;;;;5100142;28;20214;-84
2021/11/21 09:47:24;;;;;;;20.55;13.75;;;4.70;99.90;;;;;;5099477;28;20211;-84
2021/11/21 09:49:52;;;;;;;17.42;11.93;;;4.70;99.90;;;;;;5102209;22;20240;-80
2021/11/21 09:52:19;;;;;;;17.70;11.98;;;4.50;99.90;;;;;;5088217;28;20201;-81
2021/11/21 09:54:46;;;;;;;15.77;10.82;;;4.50;99.90;;;;;;5088614;28;20205;-80
2021/11/21 09:57:12;;;;;;;19.08;12.80;;;4.30;99.90;;;;;;5088647;28;20201;-81
2021/11/21 09:59:56;;;;;;;18.38;12.70;;;4.10;99.90;;;;;;5089117;28;20217;-81
2021/11/21 10:02:29;;;;;;;21.20;12.50;;;4.30;99.90;;;;;;5083109;28;20218;-82
2021/11/21 10:04:56;;;;;;;18.98;13.43;;;4.30;99.90;;;;;;5081741;28;20239;-81
2021/11/21 10:07:25;;;;;;;22.13;12.32;;;4.30;99.90;;;;;;5081550;28;20211;-82
2021/11/21 10:09:52;;;;;;;16.98;12.75;;;4.60;99.90;;;;;;5081876;28;20225;-82
2021/11/21 10:12:20;;;;;;;15.85;11.00;;;4.80;99.90;;;;;;5081597;28;20243;-82
2021/11/21 10:14:59;;;;;;;15.93;10.45;;;5.00;99.90;;;;;;5082279;28;20203;-81
2021/11/21 10:17:30;;;;;;;16.55;11.50;;;5.10;99.90;;;;;;5081018;28;20209;-81
2021/11/21 10:20:06;;;;;;;17.90;13.73;;;5.30;99.90;;;;;;5081026;28;20608;-81
2021/11/21 10:22:47;;;;;;;14.10;11.38;;;5.30;99.90;;;;;;5082378;28;20208;-81
2021/11/21 10:25:14;;;;;;;13.65;10.50;;;5.30;99.90;;;;;;5083039;28;20219;-81
2021/11/21 10:27:41;;;;;;;12.98;11.60;;;5.30;99.90;;;;;;5081792;28;20213;-81
2021/11/21 10:30:09;;;;;;;12.30;10.88;;;5.40;99.90;;;;;;5082941;28;20228;-82
2021/11/21 10:32:37;;;;;;;13.65;11.60;;;5.50;99.90;;;;;;5082678;28;20205;-81
2021/11/21 10:35:06;;;;;;;15.70;11.30;;;5.50;99.90;;;;;;5081878;28;20205;-82
2021/11/21 10:37:35;;;;;;;13.75;9.98;;;5.60;99.90;;;;;;5082105;28;20212;-81
2021/11/21 10:40:03;;;;;;;17.35;11.38;;;5.70;99.90;;;;;;5080995;28;20234;-81
2021/11/21 10:42:31;;;;;;;20.48;11.50;;;5.80;99.90;;;;;;5080318;28;20286;-81
2021/11/21 10:44:58;;;;;;;15.73;12.27;;;5.80;99.90;;;;;;5091998;28;20211;-79
2021/11/21 10:47:40;;;;;;;13.00;10.32;;;5.70;99.90;;;;;;5093683;28;20220;-80
2021/11/21 10:50:10;;;;;;;14.30;10.38;;;5.70;99.90;;;;;;5094265;28;20236;-79
2021/11/21 10:52:45;;;;;;;14.55;9.85;;;5.70;99.90;;;;;;5086347;28;20212;-81
2021/11/21 10:55:15;;;;;;;12.85;11.50;;;5.70;99.90;;;;;;5080296;28;20189;-81
2021/11/21 10:57:41;;;;;;;10.95;9.32;;;5.70;99.90;;;;;;5080911;28;20213;-81
2021/11/21 11:00:15;;;;;;;12.20;9.73;;;5.60;99.90;;;;;;5080708;28;20247;-81
2021/11/21 11:02:44;;;;;;;12.00;9.15;;;5.70;99.90;;;;;;5081190;28;20569;-81
2021/11/21 11:05:13;;;;;;;11.38;9.25;;;5.70;99.90;;;;;;5079989;28;20235;-81
2021/11/21 11:07:42;;;;;;;12.30;8.82;;;5.80;99.90;;;;;;5080490;28;20244;-81
2021/11/21 11:10:12;;;;;;;10.82;9.63;;;5.90;99.90;;;;;;5079995;28;20268;-81
2021/11/21 11:12:41;;;;;;;10.73;9.50;;;6.00;99.90;;;;;;5079828;28;20209;-81
2021/11/21 11:15:08;;;;;;;11.13;9.25;;;6.00;99.90;;;;;;5080502;28;20205;-81
2021/11/21 11:17:37;;;;;;;12.23;10.20;;;6.10;99.90;;;;;;5080276;28;20205;-81
2021/11/21 11:20:07;;;;;;;16.33;12.68;;;6.10;99.90;;;;;;5079969;28;20225;-81
2021/11/21 11:22:37;;;;;;;13.02;10.05;;;6.10;99.90;;;;;;5079932;28;20212;-81
2021/11/21 11:25:07;;;;;;;14.63;10.57;;;6.00;99.90;;;;;;5081449;28;20209;-81
2021/11/21 11:27:42;;;;;;;14.73;10.13;;;6.00;99.90;;;;;;5080440;28;20225;-81
2021/11/21 11:30:09;;;;;;;17.08;11.27;;;6.00;99.90;;;;;;5080751;28;20232;-81
2021/11/21 11:32:38;;;;;;;11.23;8.70;;;6.00;99.90;;;;;;5080598;28;20209;-82
2021/11/21 11:35:07;;;;;;;11.32;9.02;;;6.00;99.90;;;;;;5080328;28;20220;-82
2021/11/21 11:37:39;;;;;;;10.95;7.05;;;5.90;99.90;;;;;;5078539;28;20209;-81
2021/11/21 11:40:27;;;;;;;11.63;9.07;;;5.40;99.90;;;;;;5080665;28;20216;-80
2021/11/21 11:42:55;;;;;;;9.10;8.18;;;4.90;99.90;;;;;;5092658;28;20189;-81
2021/11/21 11:45:41;;;;;;;11.13;7.40;;;4.80;99.90;;;;;;5087236;28;20207;-81
2021/11/21 11:48:40;;;;;;;10.05;7.03;;;4.40;99.90;;;;;;5079138;28;20201;-82
2021/11/21 11:51:10;;;;;;;12.98;9.57;;;4.30;99.90;;;;;;5079403;28;20582;-81
2021/11/21 11:53:40;;;;;;;13.65;7.97;;;4.30;99.90;;;;;;5079137;28;20319;-81
2021/11/21 11:56:13;;;;;;;9.05;7.90;;;4.30;99.90;;;;;;5080205;28;20583;-81
2021/11/21 11:58:50;;;;;;;12.35;8.15;;;4.40;99.90;;;;;;5079510;28;20238;-82
2021/11/21 12:01:52;;;;;;;10.25;9.02;;;4.40;99.90;;;;;;5078990;28;20212;-81
2021/11/21 12:04:49;;;;;;;13.10;9.05;;;4.40;99.90;;;;;;5079429;28;20662;-81
2021/11/21 12:07:25;;;;;;;9.02;7.78;;;4.60;99.90;;;;;;5079149;28;20224;-81
2021/11/21 12:09:59;;;;;;;12.43;8.88;;;4.60;99.90;;;;;;5079332;28;20234;-82
2021/11/21 12:13:05;;;;;;;11.10;7.60;;;4.50;99.90;;;;;;5079322;28;20696;-81
2021/11/21 12:15:54;;;;;;;9.88;8.07;;;4.40;99.90;;;;;;5079714;28;20203;-82
2021/11/21 12:18:21;;;;;;;11.18;8.15;;;4.40;99.90;;;;;;5078586;28;20208;-81
2021/11/21 12:20:54;;;;;;;12.15;9.50;;;4.50;99.90;;;;;;5079494;28;20212;-81
2021/11/21 12:23:57;;;;;;;12.77;9.10;;;4.50;99.90;;;;;;5078813;28;20208;-81
2021/11/21 12:26:28;;;;;;;11.13;8.98;;;4.60;99.90;;;;;;5080599;28;20221;-80
2021/11/21 12:29:01;;;;;;;14.50;10.38;;;4.80;99.90;;;;;;5080310;28;20224;-82
2021/11/21 12:31:36;;;;;;;12.32;9.25;;;5.00;99.90;;;;;;5080373;28;20216;-81
2021/11/21 12:34:41;;;;;;;12.75;7.10;;;5.20;99.90;;;;;;5079473;28;20211;-81
2021/11/21 12:37:19;;;;;;;18.58;12.75;;;5.40;99.90;;;;;;5079578;28;20235;-81
2021/11/21 12:39:48;;;;;;;15.30;12.75;;;5.60;99.90;;;;;;5080278;28;20289;-82
2021/11/21 12:42:18;;;;;;;17.55;13.20;;;5.70;99.90;;;;;;5079658;28;20574;-81
2021/11/21 12:44:46;;;;;;;18.60;13.23;;;5.70;99.90;;;;;;5080065;28;20241;-82
2021/11/21 12:47:14;;;;;;;18.52;13.63;;;5.70;99.90;;;;;;5078858;28;20231;-82
2021/11/21 12:49:43;;;;;;;14.98;12.73;;;5.70;99.90;;;;;;5077977;28;20236;-81
2021/11/21 12:52:12;;;;;;;17.05;13.57;;;5.70;99.90;;;;;;5077932;28;20654;-81
2021/11/21 12:54:40;;;;;;;20.95;14.52;;;5.80;99.90;;;;;;5078382;28;20682;-82
2021/11/21 12:57:08;;;;;;;17.40;12.55;;;5.80;99.90;;;;;;5074137;28;20227;-83
2021/11/21 12:59:57;;;;;;;17.15;14.13;;;5.80;99.90;;;;;;5063060;28;20218;-81
2021/11/21 13:02:26;;;;;;;21.33;12.25;;;5.80;99.90;;;;;;5071737;28;20211;-82
2021/11/21 13:04:57;;;;;;;19.50;13.00;;;5.70;99.90;;;;;;5071190;28;20205;-82
2021/11/21 13:07:33;;;;;;;22.02;12.90;;;5.70;99.90;;;;;;5078197;28;20288;-82
2021/11/21 13:10:10;;;;;;;16.58;14.60;;;5.50;99.90;;;;;;5064076;28;20217;-82
2021/11/21 13:12:39;;;;;;;18.45;14.48;;;5.50;99.90;;;;;;5069984;28;20231;-82
2021/11/21 13:15:11;;;;;;;15.52;12.23;;;5.60;99.90;;;;;;5077251;28;20219;-82
2021/11/21 13:17:39;;;;;;;17.85;13.80;;;5.70;99.90;;;;;;5066834;28;20197;-81
2021/11/21 13:20:11;;;;;;;20.80;14.00;;;5.70;99.90;;;;;;5058523;28;20229;-81
2021/11/21 13:22:53;;;;;;;19.92;14.82;;;5.70;99.90;;;;;;5070440;28;20205;-81
2021/11/21 13:25:28;;;;;;;19.95;13.75;;;5.70;99.90;;;;;;5078919;28;20200;-82
2021/11/21 13:28:22;;;;;;;20.45;12.70;;;5.60;99.90;;;;;;5065494;28;20729;-81
2021/11/21 13:30:51;;;;;;;18.83;14.40;;;5.60;99.90;;;;;;5058057;28;20213;-81
2021/11/21 13:33:20;;;;;;;16.00;12.93;;;5.60;99.90;;;;;;5075110;28;20216;-81
2021/11/21 13:35:52;;;;;;;18.38;12.60;;;5.60;99.90;;;;;;5079142;28;20236;-81
2021/11/21 13:38:20;;;;;;;18.10;13.68;;;5.60;99.90;;;;;;5067136;28;20200;-81
2021/11/21 13:40:47;;;;;;;18.77;12.98;;;5.60;99.90;;;;;;5082348;28;20219;-81
2021/11/21 13:43:48;;;;;;;19.75;13.45;;;5.60;99.90;;;;;;5073889;28;20654;-81
2021/11/21 13:46:20;;;;;;;18.67;11.70;;;5.60;99.90;;;;;;5061474;28;20287;-82
2021/11/21 13:48:48;;;;;;;18.55;11.60;;;5.60;99.90;;;;;;5064801;28;20237;-81
2021/11/21 13:51:27;;;;;;;17.98;12.68;;;5.60;99.90;;;;;;5061638;28;20263;-82
2021/11/21 13:53:55;;;;;;;19.70;12.50;;;5.60;99.90;;;;;;5063977;28;20206;-81
2021/11/21 13:56:22;;;;;;;19.67;14.20;;;5.70;99.90;;;;;;5081662;28;20709;-81
2021/11/21 13:58:50;;;;;;;14.68;11.95;;;5.70;99.90;;;;;;5079968;28;20217;-81
2021/11/21 14:01:21;;;;;;;17.33;12.18;;;5.70;99.90;;;;;;5073562;28;20198;-81
2021/11/21 14:03:51;;;;;;;19.08;13.30;;;5.70;99.90;;;;;;5064692;28;20193;-81
2021/11/21 14:06:19;;;;;;;17.13;12.63;;;5.70;99.90;;;;;;5081643;28;20217;-82